sensor_id;sensor_type;location;lat;lon;timestamp;P1;durP1;ratioP1;P2;durP2;ratioP2
39738;SDS011;25422;48.286;8.484;2023-12-28T00:01:22;1.73;;;1.48;;
39738;SDS011;25422;48.286;8.484;2023-12-28T00:03:48;2.95;;;1.55;;
39738;SDS011;25422;48.286;8.484;2023-12-28T00:06:14;2.13;;;1.67;;
39738;SDS011;25422;48.286;8.484;2023-12-28T00:08:40;1.52;;;1.40;;
39738;SDS011;25422;48.286;8.484;2023-12-28T00:11:06;2.80;;;1.52;;
39738;SDS011;25422;48.286;8.484;2023-12-28T00:13:31;2.00;;;1.65;;
39738;SDS011;25422;48.286;8.484;2023-12-28T00:15:57;2.28;;;1.80;;
39738;SDS011;25422;48.286;8.484;2023-12-28T00:18:22;2.33;;;1.60;;
39738;SDS011;25422;48.286;8.484;2023-12-28T00:20:48;1.50;;;1.40;;
39738;SDS011;25422;48.286;8.484;2023-12-28T00:23:13;2.67;;;1.65;;
39738;SDS011;25422;48.286;8.484;2023-12-28T00:25:38;2.55;;;1.67;;
39738;SDS011;25422;48.286;8.484;2023-12-28T00:28:04;1.60;;;1.50;;
39738;SDS011;25422;48.286;8.484;2023-12-28T00:30:30;1.92;;;1.48;;
39738;SDS011;25422;48.286;8.484;2023-12-28T00:32:55;2.30;;;1.67;;
39738;SDS011;25422;48.286;8.484;2023-12-28T00:35:20;2.10;;;1.50;;
39738;SDS011;25422;48.286;8.484;2023-12-28T00:37:46;1.70;;;1.60;;
39738;SDS011;25422;48.286;8.484;2023-12-28T00:40:11;2.03;;;1.70;;
39738;SDS011;25422;48.286;8.484;2023-12-28T00:42:37;3.05;;;1.85;;
39738;SDS011;25422;48.286;8.484;2023-12-28T00:45:04;2.38;;;1.83;;
39738;SDS011;25422;48.286;8.484;2023-12-28T00:47:30;1.90;;;1.70;;
39738;SDS011;25422;48.286;8.484;2023-12-28T00:49:56;2.63;;;1.80;;
39738;SDS011;25422;48.286;8.484;2023-12-28T00:52:21;4.45;;;2.00;;
39738;SDS011;25422;48.286;8.484;2023-12-28T00:54:46;2.78;;;1.45;;
39738;SDS011;25422;48.286;8.484;2023-12-28T00:57:12;1.98;;;1.65;;
39738;SDS011;25422;48.286;8.484;2023-12-28T00:59:38;1.92;;;1.48;;
39738;SDS011;25422;48.286;8.484;2023-12-28T01:02:03;1.88;;;1.63;;
39738;SDS011;25422;48.286;8.484;2023-12-28T01:04:29;3.88;;;1.50;;
39738;SDS011;25422;48.286;8.484;2023-12-28T01:06:54;4.53;;;1.80;;
39738;SDS011;25422;48.286;8.484;2023-12-28T01:09:21;1.95;;;1.65;;
39738;SDS011;25422;48.286;8.484;2023-12-28T01:11:47;1.85;;;1.55;;
39738;SDS011;25422;48.286;8.484;2023-12-28T01:14:12;3.20;;;1.80;;
39738;SDS011;25422;48.286;8.484;2023-12-28T01:16:37;1.98;;;1.73;;
39738;SDS011;25422;48.286;8.484;2023-12-28T01:19:05;2.00;;;1.60;;
39738;SDS011;25422;48.286;8.484;2023-12-28T01:21:30;1.83;;;1.48;;
39738;SDS011;25422;48.286;8.484;2023-12-28T01:23:56;4.40;;;1.50;;
39738;SDS011;25422;48.286;8.484;2023-12-28T01:26:22;2.45;;;1.90;;
39738;SDS011;25422;48.286;8.484;2023-12-28T01:28:47;2.67;;;1.75;;
39738;SDS011;25422;48.286;8.484;2023-12-28T01:31:12;1.90;;;1.60;;
39738;SDS011;25422;48.286;8.484;2023-12-28T01:33:38;1.92;;;1.60;;
39738;SDS011;25422;48.286;8.484;2023-12-28T01:36:20;2.30;;;1.77;;
39738;SDS011;25422;48.286;8.484;2023-12-28T01:38:46;1.88;;;1.60;;
39738;SDS011;25422;48.286;8.484;2023-12-28T01:41:12;1.95;;;1.65;;
39738;SDS011;25422;48.286;8.484;2023-12-28T01:43:38;3.20;;;1.70;;
39738;SDS011;25422;48.286;8.484;2023-12-28T01:46:09;3.83;;;1.50;;
39738;SDS011;25422;48.286;8.484;2023-12-28T01:48:39;2.00;;;1.75;;
39738;SDS011;25422;48.286;8.484;2023-12-28T01:51:06;2.25;;;1.83;;
39738;SDS011;25422;48.286;8.484;2023-12-28T01:53:32;2.22;;;1.90;;
39738;SDS011;25422;48.286;8.484;2023-12-28T01:55:57;2.17;;;1.80;;
39738;SDS011;25422;48.286;8.484;2023-12-28T01:58:24;2.78;;;1.90;;
39738;SDS011;25422;48.286;8.484;2023-12-28T02:00:51;2.97;;;1.98;;
39738;SDS011;25422;48.286;8.484;2023-12-28T02:03:17;2.00;;;1.75;;
39738;SDS011;25422;48.286;8.484;2023-12-28T02:05:44;1.95;;;1.67;;
39738;SDS011;25422;48.286;8.484;2023-12-28T02:08:10;3.38;;;1.90;;
39738;SDS011;25422;48.286;8.484;2023-12-28T02:10:38;3.50;;;1.77;;
39738;SDS011;25422;48.286;8.484;2023-12-28T02:13:04;3.00;;;1.80;;
39738;SDS011;25422;48.286;8.484;2023-12-28T02:15:29;2.85;;;1.70;;
39738;SDS011;25422;48.286;8.484;2023-12-28T02:18:02;3.25;;;1.80;;
39738;SDS011;25422;48.286;8.484;2023-12-28T02:20:36;2.33;;;1.80;;
39738;SDS011;25422;48.286;8.484;2023-12-28T02:23:03;2.75;;;1.90;;
39738;SDS011;25422;48.286;8.484;2023-12-28T02:25:30;2.15;;;1.80;;
39738;SDS011;25422;48.286;8.484;2023-12-28T02:27:56;3.00;;;1.80;;
39738;SDS011;25422;48.286;8.484;2023-12-28T02:30:22;3.10;;;2.05;;
39738;SDS011;25422;48.286;8.484;2023-12-28T02:32:56;1.60;;;1.50;;
39738;SDS011;25422;48.286;8.484;2023-12-28T02:38:26;2.53;;;1.83;;
39738;SDS011;25422;48.286;8.484;2023-12-28T02:40:55;1.63;;;1.53;;
39738;SDS011;25422;48.286;8.484;2023-12-28T02:43:21;2.00;;;1.80;;
39738;SDS011;25422;48.286;8.484;2023-12-28T02:45:47;2.30;;;1.83;;
39738;SDS011;25422;48.286;8.484;2023-12-28T02:48:12;2.67;;;1.75;;
39738;SDS011;25422;48.286;8.484;2023-12-28T02:50:38;3.25;;;1.90;;
39738;SDS011;25422;48.286;8.484;2023-12-28T02:53:03;1.88;;;1.50;;
39738;SDS011;25422;48.286;8.484;2023-12-28T02:55:29;2.05;;;1.70;;
39738;SDS011;25422;48.286;8.484;2023-12-28T02:57:55;2.25;;;1.73;;
39738;SDS011;25422;48.286;8.484;2023-12-28T03:00:24;2.30;;;1.67;;
39738;SDS011;25422;48.286;8.484;2023-12-28T03:02:50;2.83;;;1.90;;
39738;SDS011;25422;48.286;8.484;2023-12-28T03:05:15;3.63;;;1.80;;
39738;SDS011;25422;48.286;8.484;2023-12-28T03:07:41;1.50;;;1.40;;
39738;SDS011;25422;48.286;8.484;2023-12-28T03:10:07;1.88;;;1.77;;
39738;SDS011;25422;48.286;8.484;2023-12-28T03:12:33;2.80;;;1.65;;
39738;SDS011;25422;48.286;8.484;2023-12-28T03:14:59;2.35;;;1.60;;
39738;SDS011;25422;48.286;8.484;2023-12-28T03:17:25;2.00;;;1.80;;
39738;SDS011;25422;48.286;8.484;2023-12-28T03:19:50;2.22;;;1.50;;
39738;SDS011;25422;48.286;8.484;2023-12-28T03:22:16;1.88;;;1.48;;
39738;SDS011;25422;48.286;8.484;2023-12-28T03:24:42;1.90;;;1.52;;
39738;SDS011;25422;48.286;8.484;2023-12-28T03:27:08;2.47;;;1.60;;
39738;SDS011;25422;48.286;8.484;2023-12-28T03:29:34;2.65;;;1.80;;
39738;SDS011;25422;48.286;8.484;2023-12-28T03:32:00;1.75;;;1.48;;
39738;SDS011;25422;48.286;8.484;2023-12-28T03:34:26;1.88;;;1.67;;
39738;SDS011;25422;48.286;8.484;2023-12-28T03:36:54;2.80;;;1.48;;
39738;SDS011;25422;48.286;8.484;2023-12-28T03:39:19;1.65;;;1.50;;
39738;SDS011;25422;48.286;8.484;2023-12-28T03:41:45;2.08;;;1.63;;
39738;SDS011;25422;48.286;8.484;2023-12-28T03:44:10;3.55;;;1.48;;
39738;SDS011;25422;48.286;8.484;2023-12-28T03:46:36;2.65;;;1.58;;
39738;SDS011;25422;48.286;8.484;2023-12-28T03:49:01;1.90;;;1.67;;
39738;SDS011;25422;48.286;8.484;2023-12-28T03:51:27;2.83;;;1.50;;
39738;SDS011;25422;48.286;8.484;2023-12-28T03:53:53;4.00;;;1.40;;
39738;SDS011;25422;48.286;8.484;2023-12-28T03:56:22;2.47;;;1.55;;
39738;SDS011;25422;48.286;8.484;2023-12-28T03:58:49;2.40;;;1.30;;
39738;SDS011;25422;48.286;8.484;2023-12-28T04:01:16;2.15;;;1.60;;
39738;SDS011;25422;48.286;8.484;2023-12-28T04:03:43;1.67;;;1.40;;
39738;SDS011;25422;48.286;8.484;2023-12-28T04:06:08;1.85;;;1.30;;
39738;SDS011;25422;48.286;8.484;2023-12-28T04:08:33;1.67;;;1.58;;
39738;SDS011;25422;48.286;8.484;2023-12-28T04:10:59;1.92;;;1.73;;
39738;SDS011;25422;48.286;8.484;2023-12-28T04:13:24;1.50;;;1.40;;
39738;SDS011;25422;48.286;8.484;2023-12-28T04:15:50;2.08;;;1.60;;
39738;SDS011;25422;48.286;8.484;2023-12-28T04:18:15;3.13;;;1.42;;
39738;SDS011;25422;48.286;8.484;2023-12-28T04:20:44;3.05;;;1.83;;
39738;SDS011;25422;48.286;8.484;2023-12-28T04:23:12;1.70;;;1.42;;
39738;SDS011;25422;48.286;8.484;2023-12-28T04:25:38;2.00;;;1.80;;
39738;SDS011;25422;48.286;8.484;2023-12-28T04:28:03;2.83;;;1.70;;
39738;SDS011;25422;48.286;8.484;2023-12-28T04:30:29;2.40;;;1.42;;
39738;SDS011;25422;48.286;8.484;2023-12-28T04:32:54;1.40;;;1.25;;
39738;SDS011;25422;48.286;8.484;2023-12-28T04:35:20;2.40;;;1.50;;
39738;SDS011;25422;48.286;8.484;2023-12-28T04:37:46;1.88;;;1.55;;
39738;SDS011;25422;48.286;8.484;2023-12-28T04:40:11;1.90;;;1.50;;
39738;SDS011;25422;48.286;8.484;2023-12-28T04:42:39;2.65;;;1.67;;
39738;SDS011;25422;48.286;8.484;2023-12-28T04:45:05;1.98;;;1.50;;
39738;SDS011;25422;48.286;8.484;2023-12-28T04:47:31;3.42;;;1.45;;
39738;SDS011;25422;48.286;8.484;2023-12-28T04:49:57;1.52;;;1.42;;
39738;SDS011;25422;48.286;8.484;2023-12-28T04:52:22;2.45;;;1.55;;
39738;SDS011;25422;48.286;8.484;2023-12-28T04:54:47;1.88;;;1.30;;
39738;SDS011;25422;48.286;8.484;2023-12-28T04:57:13;3.78;;;1.52;;
39738;SDS011;25422;48.286;8.484;2023-12-28T04:59:38;3.45;;;1.40;;
39738;SDS011;25422;48.286;8.484;2023-12-28T05:02:04;5.65;;;1.42;;
39738;SDS011;25422;48.286;8.484;2023-12-28T05:04:30;3.88;;;1.40;;
39738;SDS011;25422;48.286;8.484;2023-12-28T05:06:55;2.20;;;1.60;;
39738;SDS011;25422;48.286;8.484;2023-12-28T05:09:21;1.65;;;1.55;;
39738;SDS011;25422;48.286;8.484;2023-12-28T05:11:46;3.35;;;1.45;;
39738;SDS011;25422;48.286;8.484;2023-12-28T05:14:12;4.45;;;1.60;;
39738;SDS011;25422;48.286;8.484;2023-12-28T05:16:37;2.80;;;1.30;;
39738;SDS011;25422;48.286;8.484;2023-12-28T05:19:03;1.88;;;1.33;;
39738;SDS011;25422;48.286;8.484;2023-12-28T05:21:28;3.03;;;1.50;;
39738;SDS011;25422;48.286;8.484;2023-12-28T05:23:54;1.90;;;1.50;;
39738;SDS011;25422;48.286;8.484;2023-12-28T05:26:19;2.20;;;1.40;;
39738;SDS011;25422;48.286;8.484;2023-12-28T05:28:45;2.13;;;1.60;;
39738;SDS011;25422;48.286;8.484;2023-12-28T05:31:10;2.28;;;1.40;;
39738;SDS011;25422;48.286;8.484;2023-12-28T05:33:35;4.18;;;1.80;;
39738;SDS011;25422;48.286;8.484;2023-12-28T05:36:01;2.55;;;1.52;;
39738;SDS011;25422;48.286;8.484;2023-12-28T05:38:26;2.45;;;1.70;;
39738;SDS011;25422;48.286;8.484;2023-12-28T05:40:52;3.33;;;1.90;;
39738;SDS011;25422;48.286;8.484;2023-12-28T05:43:17;4.10;;;1.70;;
39738;SDS011;25422;48.286;8.484;2023-12-28T05:45:43;3.03;;;2.00;;
39738;SDS011;25422;48.286;8.484;2023-12-28T05:48:08;1.98;;;1.40;;
39738;SDS011;25422;48.286;8.484;2023-12-28T05:50:34;3.22;;;1.80;;
39738;SDS011;25422;48.286;8.484;2023-12-28T05:52:59;1.95;;;1.58;;
39738;SDS011;25422;48.286;8.484;2023-12-28T05:55:24;3.03;;;1.70;;
39738;SDS011;25422;48.286;8.484;2023-12-28T05:57:50;2.90;;;1.60;;
39738;SDS011;25422;48.286;8.484;2023-12-28T06:00:15;3.47;;;1.65;;
39738;SDS011;25422;48.286;8.484;2023-12-28T06:02:41;2.63;;;1.45;;
39738;SDS011;25422;48.286;8.484;2023-12-28T06:05:07;1.65;;;1.50;;
39738;SDS011;25422;48.286;8.484;2023-12-28T06:07:32;2.00;;;1.80;;
39738;SDS011;25422;48.286;8.484;2023-12-28T06:09:58;3.22;;;1.52;;
39738;SDS011;25422;48.286;8.484;2023-12-28T06:12:24;3.67;;;1.90;;
39738;SDS011;25422;48.286;8.484;2023-12-28T06:14:49;4.95;;;3.28;;
39738;SDS011;25422;48.286;8.484;2023-12-28T06:17:15;1.50;;;1.40;;
39738;SDS011;25422;48.286;8.484;2023-12-28T06:19:41;3.50;;;1.85;;
39738;SDS011;25422;48.286;8.484;2023-12-28T06:22:06;3.30;;;1.80;;
39738;SDS011;25422;48.286;8.484;2023-12-28T06:24:32;4.00;;;2.35;;
39738;SDS011;25422;48.286;8.484;2023-12-28T06:26:57;2.25;;;1.77;;
39738;SDS011;25422;48.286;8.484;2023-12-28T06:29:23;3.92;;;2.00;;
39738;SDS011;25422;48.286;8.484;2023-12-28T06:31:48;3.45;;;1.70;;
39738;SDS011;25422;48.286;8.484;2023-12-28T06:34:14;2.80;;;1.40;;
39738;SDS011;25422;48.286;8.484;2023-12-28T06:36:39;5.28;;;2.00;;
39738;SDS011;25422;48.286;8.484;2023-12-28T06:39:04;1.73;;;1.60;;
39738;SDS011;25422;48.286;8.484;2023-12-28T06:41:30;4.15;;;1.70;;
39738;SDS011;25422;48.286;8.484;2023-12-28T06:43:55;2.35;;;1.80;;
39738;SDS011;25422;48.286;8.484;2023-12-28T06:46:21;3.10;;;1.45;;
39738;SDS011;25422;48.286;8.484;2023-12-28T06:48:46;3.72;;;1.80;;
39738;SDS011;25422;48.286;8.484;2023-12-28T06:51:19;2.88;;;1.65;;
39738;SDS011;25422;48.286;8.484;2023-12-28T06:53:45;3.55;;;2.70;;
39738;SDS011;25422;48.286;8.484;2023-12-28T06:56:11;2.67;;;1.48;;
39738;SDS011;25422;48.286;8.484;2023-12-28T06:58:37;1.42;;;1.30;;
39738;SDS011;25422;48.286;8.484;2023-12-28T07:01:06;2.30;;;1.58;;
39738;SDS011;25422;48.286;8.484;2023-12-28T07:03:32;3.13;;;1.50;;
39738;SDS011;25422;48.286;8.484;2023-12-28T07:05:58;1.88;;;1.55;;
39738;SDS011;25422;48.286;8.484;2023-12-28T07:08:24;2.33;;;1.25;;
39738;SDS011;25422;48.286;8.484;2023-12-28T07:10:49;1.90;;;1.58;;
39738;SDS011;25422;48.286;8.484;2023-12-28T07:13:15;2.92;;;1.70;;
39738;SDS011;25422;48.286;8.484;2023-12-28T07:15:40;2.35;;;1.88;;
39738;SDS011;25422;48.286;8.484;2023-12-28T07:18:06;2.70;;;2.28;;
39738;SDS011;25422;48.286;8.484;2023-12-28T07:20:31;3.50;;;2.63;;
39738;SDS011;25422;48.286;8.484;2023-12-28T07:22:57;3.90;;;1.80;;
39738;SDS011;25422;48.286;8.484;2023-12-28T07:25:22;6.50;;;2.50;;
39738;SDS011;25422;48.286;8.484;2023-12-28T07:27:47;3.00;;;1.85;;
39738;SDS011;25422;48.286;8.484;2023-12-28T07:30:13;7.78;;;1.98;;
39738;SDS011;25422;48.286;8.484;2023-12-28T07:32:39;1.92;;;1.65;;
39738;SDS011;25422;48.286;8.484;2023-12-28T07:35:04;4.10;;;2.10;;
39738;SDS011;25422;48.286;8.484;2023-12-28T07:37:30;4.25;;;2.05;;
39738;SDS011;25422;48.286;8.484;2023-12-28T07:39:55;4.53;;;2.67;;
39738;SDS011;25422;48.286;8.484;2023-12-28T07:42:21;5.32;;;2.50;;
39738;SDS011;25422;48.286;8.484;2023-12-28T07:44:47;3.38;;;1.80;;
39738;SDS011;25422;48.286;8.484;2023-12-28T07:47:12;3.55;;;1.80;;
39738;SDS011;25422;48.286;8.484;2023-12-28T07:49:38;2.55;;;1.50;;
39738;SDS011;25422;48.286;8.484;2023-12-28T07:52:03;3.88;;;2.05;;
39738;SDS011;25422;48.286;8.484;2023-12-28T07:54:29;1.52;;;1.40;;
39738;SDS011;25422;48.286;8.484;2023-12-28T07:56:54;3.17;;;1.60;;
39738;SDS011;25422;48.286;8.484;2023-12-28T07:59:20;2.83;;;1.65;;
39738;SDS011;25422;48.286;8.484;2023-12-28T08:01:45;4.70;;;1.67;;
39738;SDS011;25422;48.286;8.484;2023-12-28T08:04:11;1.65;;;1.40;;
39738;SDS011;25422;48.286;8.484;2023-12-28T08:06:36;2.88;;;1.60;;
39738;SDS011;25422;48.286;8.484;2023-12-28T08:09:02;8.93;;;5.38;;
39738;SDS011;25422;48.286;8.484;2023-12-28T08:11:27;4.35;;;2.70;;
39738;SDS011;25422;48.286;8.484;2023-12-28T08:13:53;2.90;;;2.05;;
39738;SDS011;25422;48.286;8.484;2023-12-28T08:16:19;4.60;;;3.28;;
39738;SDS011;25422;48.286;8.484;2023-12-28T08:18:44;3.15;;;2.70;;
39738;SDS011;25422;48.286;8.484;2023-12-28T08:21:10;4.88;;;3.00;;
39738;SDS011;25422;48.286;8.484;2023-12-28T08:23:35;3.03;;;2.20;;
39738;SDS011;25422;48.286;8.484;2023-12-28T08:26:01;2.78;;;2.50;;
39738;SDS011;25422;48.286;8.484;2023-12-28T08:28:27;2.65;;;2.17;;
39738;SDS011;25422;48.286;8.484;2023-12-28T08:30:53;1.85;;;1.33;;
39738;SDS011;25422;48.286;8.484;2023-12-28T08:33:21;2.63;;;1.70;;
39738;SDS011;25422;48.286;8.484;2023-12-28T08:35:46;2.65;;;1.63;;
39738;SDS011;25422;48.286;8.484;2023-12-28T08:38:11;1.92;;;1.48;;
39738;SDS011;25422;48.286;8.484;2023-12-28T08:40:37;1.65;;;1.40;;
39738;SDS011;25422;48.286;8.484;2023-12-28T08:43:02;2.40;;;1.42;;
39738;SDS011;25422;48.286;8.484;2023-12-28T08:45:28;1.77;;;1.35;;
39738;SDS011;25422;48.286;8.484;2023-12-28T08:47:53;2.90;;;1.55;;
39738;SDS011;25422;48.286;8.484;2023-12-28T08:50:19;2.47;;;1.80;;
39738;SDS011;25422;48.286;8.484;2023-12-28T08:52:44;3.28;;;2.05;;
39738;SDS011;25422;48.286;8.484;2023-12-28T08:55:10;1.85;;;1.30;;
39738;SDS011;25422;48.286;8.484;2023-12-28T08:57:35;2.35;;;1.20;;
39738;SDS011;25422;48.286;8.484;2023-12-28T09:00:01;1.35;;;1.25;;
39738;SDS011;25422;48.286;8.484;2023-12-28T09:02:28;2.13;;;1.30;;
39738;SDS011;25422;48.286;8.484;2023-12-28T09:04:54;1.92;;;1.45;;
39738;SDS011;25422;48.286;8.484;2023-12-28T09:07:19;8.43;;;3.20;;
39738;SDS011;25422;48.286;8.484;2023-12-28T09:09:45;5.72;;;2.90;;
39738;SDS011;25422;48.286;8.484;2023-12-28T09:12:11;16.75;;;10.13;;
39738;SDS011;25422;48.286;8.484;2023-12-28T09:14:36;9.55;;;6.35;;
39738;SDS011;25422;48.286;8.484;2023-12-28T09:17:02;8.88;;;7.97;;
39738;SDS011;25422;48.286;8.484;2023-12-28T09:19:27;37.92;;;33.92;;
39738;SDS011;25422;48.286;8.484;2023-12-28T09:21:53;40.42;;;30.38;;
39738;SDS011;25422;48.286;8.484;2023-12-28T09:24:19;11.35;;;10.00;;
39738;SDS011;25422;48.286;8.484;2023-12-28T09:26:44;16.50;;;14.75;;
39738;SDS011;25422;48.286;8.484;2023-12-28T09:29:10;9.27;;;8.38;;
39738;SDS011;25422;48.286;8.484;2023-12-28T09:31:35;6.38;;;5.82;;
39738;SDS011;25422;48.286;8.484;2023-12-28T09:34:02;6.32;;;5.80;;
39738;SDS011;25422;48.286;8.484;2023-12-28T09:36:29;4.72;;;3.92;;
39738;SDS011;25422;48.286;8.484;2023-12-28T09:38:55;2.10;;;1.70;;
39738;SDS011;25422;48.286;8.484;2023-12-28T09:41:21;1.50;;;1.40;;
39738;SDS011;25422;48.286;8.484;2023-12-28T09:43:54;6.20;;;5.60;;
39738;SDS011;25422;48.286;8.484;2023-12-28T09:46:23;1.33;;;1.17;;
39738;SDS011;25422;48.286;8.484;2023-12-28T09:48:51;1.60;;;1.50;;
39738;SDS011;25422;48.286;8.484;2023-12-28T09:51:19;4.72;;;2.30;;
39738;SDS011;25422;48.286;8.484;2023-12-28T09:53:45;2.30;;;2.10;;
39738;SDS011;25422;48.286;8.484;2023-12-28T09:56:11;3.92;;;2.08;;
39738;SDS011;25422;48.286;8.484;2023-12-28T09:58:38;1.85;;;1.60;;
39738;SDS011;25422;48.286;8.484;2023-12-28T10:01:05;2.25;;;1.20;;
39738;SDS011;25422;48.286;8.484;2023-12-28T10:03:32;1.30;;;1.15;;
39738;SDS011;25422;48.286;8.484;2023-12-28T10:05:58;1.30;;;1.20;;
39738;SDS011;25422;48.286;8.484;2023-12-28T10:08:23;2.38;;;1.38;;
39738;SDS011;25422;48.286;8.484;2023-12-28T10:10:49;1.95;;;1.40;;
39738;SDS011;25422;48.286;8.484;2023-12-28T10:13:19;2.28;;;1.50;;
39738;SDS011;25422;48.286;8.484;2023-12-28T10:15:46;1.55;;;1.08;;
39738;SDS011;25422;48.286;8.484;2023-12-28T10:18:11;2.58;;;1.40;;
39738;SDS011;25422;48.286;8.484;2023-12-28T10:20:37;2.45;;;1.38;;
39738;SDS011;25422;48.286;8.484;2023-12-28T10:23:03;1.40;;;1.30;;
39738;SDS011;25422;48.286;8.484;2023-12-28T10:25:30;2.75;;;1.60;;
39738;SDS011;25422;48.286;8.484;2023-12-28T10:27:57;1.52;;;1.40;;
39738;SDS011;25422;48.286;8.484;2023-12-28T10:30:22;3.33;;;1.50;;
39738;SDS011;25422;48.286;8.484;2023-12-28T10:32:48;2.50;;;1.60;;
39738;SDS011;25422;48.286;8.484;2023-12-28T10:35:14;3.03;;;1.70;;
39738;SDS011;25422;48.286;8.484;2023-12-28T10:37:40;2.67;;;1.75;;
39738;SDS011;25422;48.286;8.484;2023-12-28T10:40:07;3.47;;;1.42;;
39738;SDS011;25422;48.286;8.484;2023-12-28T10:45:14;5.10;;;2.97;;
39738;SDS011;25422;48.286;8.484;2023-12-28T10:47:47;3.25;;;1.95;;
39738;SDS011;25422;48.286;8.484;2023-12-28T10:50:19;3.50;;;1.95;;
39738;SDS011;25422;48.286;8.484;2023-12-28T10:52:45;1.40;;;1.30;;
39738;SDS011;25422;48.286;8.484;2023-12-28T10:55:27;3.33;;;2.28;;
39738;SDS011;25422;48.286;8.484;2023-12-28T10:58:00;6.03;;;1.60;;
39738;SDS011;25422;48.286;8.484;2023-12-28T11:00:36;4.82;;;3.60;;
39738;SDS011;25422;48.286;8.484;2023-12-28T11:03:09;5.45;;;3.83;;
39738;SDS011;25422;48.286;8.484;2023-12-28T11:05:36;6.93;;;3.42;;
39738;SDS011;25422;48.286;8.484;2023-12-28T11:08:03;4.43;;;2.22;;
39738;SDS011;25422;48.286;8.484;2023-12-28T11:10:31;2.42;;;2.17;;
39738;SDS011;25422;48.286;8.484;2023-12-28T11:12:58;3.53;;;2.35;;
39738;SDS011;25422;48.286;8.484;2023-12-28T11:15:25;3.25;;;1.75;;
39738;SDS011;25422;48.286;8.484;2023-12-28T11:17:51;2.75;;;2.28;;
39738;SDS011;25422;48.286;8.484;2023-12-28T11:20:17;4.82;;;2.08;;
39738;SDS011;25422;48.286;8.484;2023-12-28T11:22:43;1.80;;;1.58;;
39738;SDS011;25422;48.286;8.484;2023-12-28T11:25:18;2.47;;;1.65;;
39738;SDS011;25422;48.286;8.484;2023-12-28T11:27:44;4.70;;;1.90;;
39738;SDS011;25422;48.286;8.484;2023-12-28T11:30:11;2.75;;;1.63;;
39738;SDS011;25422;48.286;8.484;2023-12-28T11:32:41;2.33;;;1.55;;
39738;SDS011;25422;48.286;8.484;2023-12-28T11:35:08;2.67;;;1.70;;
39738;SDS011;25422;48.286;8.484;2023-12-28T11:37:36;1.77;;;1.35;;
39738;SDS011;25422;48.286;8.484;2023-12-28T11:40:11;2.33;;;1.40;;
39738;SDS011;25422;48.286;8.484;2023-12-28T11:42:47;2.55;;;1.45;;
39738;SDS011;25422;48.286;8.484;2023-12-28T11:45:17;2.90;;;1.40;;
39738;SDS011;25422;48.286;8.484;2023-12-28T11:47:46;3.70;;;1.60;;
39738;SDS011;25422;48.286;8.484;2023-12-28T11:50:12;1.88;;;1.10;;
39738;SDS011;25422;48.286;8.484;2023-12-28T11:52:39;2.03;;;1.35;;
39738;SDS011;25422;48.286;8.484;2023-12-28T11:55:05;1.90;;;1.20;;
39738;SDS011;25422;48.286;8.484;2023-12-28T11:57:31;5.65;;;2.15;;
39738;SDS011;25422;48.286;8.484;2023-12-28T12:00:00;2.10;;;1.90;;
39738;SDS011;25422;48.286;8.484;2023-12-28T12:02:30;1.27;;;1.17;;
39738;SDS011;25422;48.286;8.484;2023-12-28T12:04:56;2.25;;;1.40;;
39738;SDS011;25422;48.286;8.484;2023-12-28T12:07:27;1.38;;;1.27;;
39738;SDS011;25422;48.286;8.484;2023-12-28T12:09:56;2.17;;;1.60;;
39738;SDS011;25422;48.286;8.484;2023-12-28T12:12:23;2.72;;;1.55;;
39738;SDS011;25422;48.286;8.484;2023-12-28T12:14:49;1.38;;;1.27;;
39738;SDS011;25422;48.286;8.484;2023-12-28T12:17:14;3.65;;;1.70;;
39738;SDS011;25422;48.286;8.484;2023-12-28T12:19:40;3.05;;;1.80;;
39738;SDS011;25422;48.286;8.484;2023-12-28T12:22:05;1.70;;;1.50;;
39738;SDS011;25422;48.286;8.484;2023-12-28T12:24:31;2.08;;;1.40;;
39738;SDS011;25422;48.286;8.484;2023-12-28T12:26:58;1.70;;;1.42;;
39738;SDS011;25422;48.286;8.484;2023-12-28T12:29:29;1.60;;;1.50;;
39738;SDS011;25422;48.286;8.484;2023-12-28T12:31:55;6.55;;;3.78;;
39738;SDS011;25422;48.286;8.484;2023-12-28T12:34:21;9.68;;;5.68;;
39738;SDS011;25422;48.286;8.484;2023-12-28T12:36:47;4.53;;;3.00;;
39738;SDS011;25422;48.286;8.484;2023-12-28T12:39:17;3.40;;;2.10;;
39738;SDS011;25422;48.286;8.484;2023-12-28T12:41:45;1.75;;;1.58;;
39738;SDS011;25422;48.286;8.484;2023-12-28T12:44:11;2.92;;;1.95;;
39738;SDS011;25422;48.286;8.484;2023-12-28T12:46:37;2.67;;;1.80;;
39738;SDS011;25422;48.286;8.484;2023-12-28T12:49:03;2.35;;;1.80;;
39738;SDS011;25422;48.286;8.484;2023-12-28T12:51:30;3.20;;;1.70;;
39738;SDS011;25422;48.286;8.484;2023-12-28T12:53:59;1.95;;;1.70;;
39738;SDS011;25422;48.286;8.484;2023-12-28T12:56:29;2.72;;;2.05;;
39738;SDS011;25422;48.286;8.484;2023-12-28T12:58:55;3.85;;;1.90;;
39738;SDS011;25422;48.286;8.484;2023-12-28T13:01:22;2.47;;;2.28;;
39738;SDS011;25422;48.286;8.484;2023-12-28T13:03:48;10.70;;;7.18;;
39738;SDS011;25422;48.286;8.484;2023-12-28T13:06:15;5.97;;;4.35;;
39738;SDS011;25422;48.286;8.484;2023-12-28T13:08:40;2.83;;;1.80;;
39738;SDS011;25422;48.286;8.484;2023-12-28T13:11:06;6.22;;;2.22;;
39738;SDS011;25422;48.286;8.484;2023-12-28T13:13:34;7.25;;;3.60;;
39738;SDS011;25422;48.286;8.484;2023-12-28T13:16:01;2.38;;;1.95;;
39738;SDS011;25422;48.286;8.484;2023-12-28T13:18:27;3.83;;;2.50;;
39738;SDS011;25422;48.286;8.484;2023-12-28T13:20:52;3.75;;;2.05;;
39738;SDS011;25422;48.286;8.484;2023-12-28T13:23:18;2.80;;;2.28;;
39738;SDS011;25422;48.286;8.484;2023-12-28T13:25:44;6.03;;;2.40;;
39738;SDS011;25422;48.286;8.484;2023-12-28T13:28:09;4.50;;;1.77;;
39738;SDS011;25422;48.286;8.484;2023-12-28T13:30:35;3.88;;;2.13;;
39738;SDS011;25422;48.286;8.484;2023-12-28T13:33:03;3.42;;;1.73;;
39738;SDS011;25422;48.286;8.484;2023-12-28T13:35:29;2.88;;;2.10;;
39738;SDS011;25422;48.286;8.484;2023-12-28T13:37:54;2.40;;;1.80;;
39738;SDS011;25422;48.286;8.484;2023-12-28T13:40:20;2.72;;;2.15;;
39738;SDS011;25422;48.286;8.484;2023-12-28T13:42:45;2.22;;;2.00;;
39738;SDS011;25422;48.286;8.484;2023-12-28T13:45:11;3.75;;;2.20;;
39738;SDS011;25422;48.286;8.484;2023-12-28T13:47:37;3.67;;;1.98;;
39738;SDS011;25422;48.286;8.484;2023-12-28T13:50:03;3.35;;;2.20;;
39738;SDS011;25422;48.286;8.484;2023-12-28T13:52:29;3.50;;;2.83;;
39738;SDS011;25422;48.286;8.484;2023-12-28T13:54:54;3.72;;;2.28;;
39738;SDS011;25422;48.286;8.484;2023-12-28T13:57:20;3.58;;;2.20;;
39738;SDS011;25422;48.286;8.484;2023-12-28T13:59:45;2.75;;;2.10;;
39738;SDS011;25422;48.286;8.484;2023-12-28T14:02:11;4.85;;;2.55;;
39738;SDS011;25422;48.286;8.484;2023-12-28T14:04:36;4.97;;;2.10;;
39738;SDS011;25422;48.286;8.484;2023-12-28T14:07:02;2.75;;;2.10;;
39738;SDS011;25422;48.286;8.484;2023-12-28T14:09:28;3.10;;;2.20;;
39738;SDS011;25422;48.286;8.484;2023-12-28T14:11:55;3.17;;;2.40;;
39738;SDS011;25422;48.286;8.484;2023-12-28T14:14:21;5.13;;;2.40;;
39738;SDS011;25422;48.286;8.484;2023-12-28T14:16:46;4.45;;;2.75;;
39738;SDS011;25422;48.286;8.484;2023-12-28T14:19:12;5.07;;;2.95;;
39738;SDS011;25422;48.286;8.484;2023-12-28T14:21:37;3.95;;;3.10;;
39738;SDS011;25422;48.286;8.484;2023-12-28T14:24:04;5.18;;;4.10;;
39738;SDS011;25422;48.286;8.484;2023-12-28T14:26:31;6.03;;;3.70;;
39738;SDS011;25422;48.286;8.484;2023-12-28T14:28:58;5.50;;;4.40;;
39738;SDS011;25422;48.286;8.484;2023-12-28T14:31:27;4.75;;;3.83;;
39738;SDS011;25422;48.286;8.484;2023-12-28T14:33:53;6.65;;;4.35;;
39738;SDS011;25422;48.286;8.484;2023-12-28T14:38:59;11.63;;;5.72;;
39738;SDS011;25422;48.286;8.484;2023-12-28T14:41:25;7.93;;;4.35;;
39738;SDS011;25422;48.286;8.484;2023-12-28T14:43:50;5.22;;;3.00;;
39738;SDS011;25422;48.286;8.484;2023-12-28T14:46:16;8.90;;;4.70;;
39738;SDS011;25422;48.286;8.484;2023-12-28T14:48:41;4.18;;;3.33;;
39738;SDS011;25422;48.286;8.484;2023-12-28T14:51:07;5.20;;;2.47;;